createdAt,value
2022-10-19T00:01:15.510Z,0.50
2022-10-19T00:03:43.615Z,0.35
2022-10-19T00:06:32.124Z,0.75
2022-10-19T00:09:02.466Z,0.38
2022-10-19T00:11:31.617Z,0.32
2022-10-19T00:13:59.636Z,1.08
2022-10-19T00:18:59.607Z,0.77
2022-10-19T00:21:27.110Z,0.85
2022-10-19T00:23:54.125Z,0.47
2022-10-19T00:26:21.231Z,0.52
2022-10-19T00:28:48.309Z,0.53
2022-10-19T00:31:17.292Z,0.90
2022-10-19T00:33:48.045Z,0.98
2022-10-19T00:36:21.885Z,1.17
2022-10-19T00:38:49.310Z,0.95
2022-10-19T00:41:18.565Z,1.30
2022-10-19T00:43:58.992Z,0.80
2022-10-19T00:46:27.814Z,1.38
2022-10-19T00:49:01.218Z,0.95
2022-10-19T00:51:30.578Z,0.20
2022-10-19T00:53:58.351Z,0.88
2022-10-19T00:56:25.723Z,0.85
2022-10-19T00:58:53.105Z,0.90
2022-10-19T01:01:23.302Z,0.73
2022-10-19T01:03:50.420Z,1.00
2022-10-19T01:06:18.957Z,0.50
2022-10-19T01:08:46.258Z,1.13
2022-10-19T01:11:27.306Z,0.43
2022-10-19T01:14:28.681Z,0.40
2022-10-19T01:17:23.036Z,0.10
2022-10-19T01:20:08.282Z,0.55
2022-10-19T01:23:10.657Z,0.60
2022-10-19T01:26:14.810Z,0.75
2022-10-19T01:29:16.433Z,0.55
2022-10-19T01:31:48.777Z,0.65
2022-10-19T01:34:26.920Z,0.90
2022-10-19T01:37:23.820Z,0.47
2022-10-19T01:39:55.954Z,0.90
2022-10-19T01:42:29.716Z,0.93
2022-10-19T01:45:18.207Z,0.90
2022-10-19T01:48:11.348Z,1.50
2022-10-19T01:51:04.615Z,0.20
2022-10-19T01:53:41.137Z,0.77
2022-10-19T01:56:09.997Z,0.65
2022-10-19T01:58:39.806Z,0.25
2022-10-19T02:03:43.740Z,0.13
2022-10-19T02:06:13.412Z,1.17
2022-10-19T02:08:52.468Z,0.75
2022-10-19T02:11:22.165Z,0.30
2022-10-19T02:13:58.301Z,0.52
2022-10-19T02:16:34.953Z,0.43
2022-10-19T02:19:03.345Z,0.75
2022-10-19T02:21:31.966Z,0.35
2022-10-19T02:23:59.217Z,0.65
2022-10-19T02:26:27.009Z,0.30
2022-10-19T02:28:56.275Z,0.80
2022-10-19T02:31:23.950Z,0.63
2022-10-19T02:33:51.189Z,0.80
2022-10-19T02:36:18.960Z,0.93
2022-10-19T02:38:46.040Z,0.40
2022-10-19T02:41:24.730Z,0.70
2022-10-19T02:43:58.548Z,0.50
2022-10-19T02:46:32.753Z,0.50
2022-10-19T02:49:02.257Z,0.88
2022-10-19T02:51:34.746Z,1.20
2022-10-19T02:54:05.147Z,1.25
2022-10-19T02:56:34.464Z,0.55
2022-10-19T02:59:02.194Z,0.60
2022-10-19T03:01:29.345Z,0.55
2022-10-19T03:03:56.374Z,0.77
2022-10-19T03:06:23.674Z,0.70
2022-10-19T03:08:51.258Z,0.38
2022-10-19T03:11:18.130Z,0.40
2022-10-19T03:13:45.350Z,0.38
2022-10-19T03:16:13.546Z,0.40
2022-10-19T03:18:40.752Z,0.25
2022-10-19T03:21:10.713Z,0.80
2022-10-19T03:23:38.826Z,0.45
2022-10-19T03:28:38.757Z,1.98
2022-10-19T03:31:05.988Z,0.47
2022-10-19T03:33:33.156Z,0.98
2022-10-19T03:36:23.861Z,0.32
2022-10-19T03:38:56.598Z,0.35
2022-10-19T03:41:25.763Z,0.85
2022-10-19T03:43:52.948Z,0.52
2022-10-19T03:46:21.022Z,1.30
2022-10-19T03:51:17.734Z,0.20
2022-10-19T03:53:46.208Z,0.50
2022-10-19T03:56:16.487Z,0.10
2022-10-19T03:58:45.128Z,0.43
2022-10-19T04:01:21.051Z,0.25
2022-10-19T04:03:48.181Z,0.45
2022-10-19T04:06:21.288Z,0.77
2022-10-19T04:08:50.493Z,0.98
2022-10-19T04:11:20.641Z,0.52
2022-10-19T04:13:51.732Z,0.93
2022-10-19T04:16:20.293Z,0.45
2022-10-19T04:18:47.810Z,0.30
2022-10-19T04:21:23.654Z,1.20
2022-10-19T04:23:53.045Z,1.17
2022-10-19T04:26:20.946Z,0.45
2022-10-19T04:28:48.150Z,1.25
2022-10-19T04:31:15.124Z,0.98
2022-10-19T04:33:42.547Z,1.13
2022-10-19T04:36:11.706Z,0.40
2022-10-19T04:38:39.290Z,0.77
2022-10-19T04:41:09.682Z,0.20
2022-10-19T04:43:37.656Z,0.95
2022-10-19T04:48:37.588Z,0.47
2022-10-19T04:51:05.699Z,0.57
2022-10-19T04:56:00.816Z,1.13
2022-10-19T04:58:27.826Z,0.20
2022-10-19T05:00:55.123Z,1.45
2022-10-19T05:03:22.080Z,0.98
2022-10-19T05:05:49.232Z,0.63
2022-10-19T05:08:16.570Z,0.30
2022-10-19T05:10:47.013Z,0.40
2022-10-19T05:13:17.893Z,0.63
2022-10-19T05:15:44.791Z,0.63
2022-10-19T05:18:12.210Z,0.38
2022-10-19T05:20:39.050Z,0.68
2022-10-19T05:23:07.373Z,0.47
2022-10-19T05:25:34.455Z,0.80
2022-10-19T05:28:01.511Z,0.50
2022-10-19T05:30:28.475Z,0.30
2022-10-19T05:32:55.413Z,1.10
2022-10-19T05:35:22.796Z,1.08
2022-10-19T05:37:55.026Z,0.50
2022-10-19T05:40:21.959Z,0.88
2022-10-19T05:42:48.886Z,0.95
2022-10-19T05:45:16.162Z,0.52
2022-10-19T05:47:43.041Z,0.55
2022-10-19T05:50:10.398Z,0.90
2022-10-19T05:52:37.352Z,1.67
2022-10-19T05:55:04.690Z,0.60
2022-10-19T05:57:33.357Z,1.05
2022-10-19T06:00:00.584Z,1.30
2022-10-19T06:02:27.567Z,1.73
2022-10-19T06:04:54.673Z,2.00
2022-10-19T06:07:21.762Z,1.52
2022-10-19T06:09:48.706Z,0.95
2022-10-19T06:12:16.363Z,0.65
2022-10-19T06:14:43.793Z,0.35
2022-10-19T06:17:11.002Z,0.85
2022-10-19T06:19:38.289Z,2.53
2022-10-19T06:22:05.295Z,2.45
2022-10-19T06:24:32.513Z,1.03
2022-10-19T06:26:59.584Z,1.67
2022-10-19T06:29:26.565Z,0.88
2022-10-19T06:31:54.738Z,1.27
2022-10-19T06:34:21.808Z,1.27
2022-10-19T06:36:48.741Z,1.73
2022-10-19T06:39:15.982Z,1.45
2022-10-19T06:41:42.916Z,0.73
2022-10-19T06:44:10.065Z,1.23
2022-10-19T06:46:36.985Z,1.13
2022-10-19T06:49:04.028Z,1.50
2022-10-19T06:51:34.382Z,2.50
2022-10-19T06:54:01.463Z,2.85
2022-10-19T06:56:28.645Z,3.30
2022-10-19T06:58:56.096Z,2.63
2022-10-19T07:01:23.402Z,2.58
2022-10-19T07:03:51.807Z,2.50
2022-10-19T07:06:19.315Z,2.67
2022-10-19T07:08:46.341Z,2.08
2022-10-19T07:11:19.952Z,1.63
2022-10-19T07:13:47.283Z,3.15
2022-10-19T07:16:20.813Z,2.05
2022-10-19T07:18:50.349Z,1.73
2022-10-19T07:21:18.655Z,1.92
2022-10-19T07:23:47.781Z,3.03
2022-10-19T07:26:23.592Z,4.30
2022-10-19T07:28:51.284Z,3.75
2022-10-19T07:31:21.737Z,3.70
2022-10-19T07:33:53.840Z,3.88
2022-10-19T07:36:21.349Z,3.47
2022-10-19T07:38:48.268Z,3.42
2022-10-19T07:41:17.417Z,3.58
2022-10-19T07:43:46.444Z,3.08
2022-10-19T07:46:17.013Z,3.03
2022-10-19T07:48:45.290Z,2.35
2022-10-19T07:51:14.509Z,2.20
2022-10-19T07:53:42.406Z,2.65
2022-10-19T07:58:40.584Z,1.50
2022-10-19T08:01:10.710Z,1.50
2022-10-19T08:08:55.677Z,1.33
2022-10-19T08:11:31.160Z,1.02
2022-10-19T08:14:03.402Z,2.72
2022-10-19T08:16:40.556Z,4.60
2022-10-19T08:19:12.855Z,1.70
2022-10-19T08:21:42.928Z,0.43
2022-10-19T08:24:12.332Z,1.30
2022-10-19T08:26:40.336Z,1.25
2022-10-19T08:29:20.211Z,0.80
2022-10-19T08:31:48.682Z,1.73
2022-10-19T08:34:16.484Z,6.35
2022-10-19T08:36:43.886Z,1.58
2022-10-19T08:39:16.479Z,1.15
2022-10-19T08:41:55.736Z,0.80
2022-10-19T08:44:44.355Z,1.20
2022-10-19T08:47:32.900Z,1.00
2022-10-19T08:50:00.365Z,1.13
2022-10-19T08:52:34.770Z,0.95
2022-10-19T08:55:28.518Z,1.27
2022-10-19T08:58:46.464Z,0.55
2022-10-19T09:01:19.295Z,0.63
2022-10-19T09:03:56.409Z,0.60
2022-10-19T09:06:32.048Z,0.77
2022-10-19T09:09:00.176Z,0.70
2022-10-19T09:11:37.061Z,0.80
2022-10-19T09:14:32.655Z,0.47
2022-10-19T09:17:14.919Z,0.52
2022-10-19T09:19:41.974Z,1.02
2022-10-19T09:22:16.404Z,0.90
2022-10-19T09:24:57.821Z,0.70
2022-10-19T09:27:27.165Z,0.82
2022-10-19T09:29:58.620Z,1.10
2022-10-19T09:32:38.345Z,0.82
2022-10-19T09:35:39.980Z,0.60
2022-10-19T09:38:08.026Z,0.60
2022-10-19T09:40:35.864Z,0.68
2022-10-19T09:43:19.835Z,0.60
2022-10-19T09:46:11.671Z,0.73
2022-10-19T09:48:51.019Z,0.43
2022-10-19T09:51:19.236Z,0.35
2022-10-19T09:53:48.950Z,0.77
2022-10-19T09:56:22.013Z,0.40
2022-10-19T09:58:54.761Z,0.50
2022-10-19T10:01:43.030Z,0.57
2022-10-19T10:04:18.817Z,0.52
2022-10-19T10:06:48.574Z,0.55
2022-10-19T10:09:29.088Z,1.35
2022-10-19T10:12:00.079Z,0.50
2022-10-19T10:14:33.161Z,0.60
2022-10-19T10:17:07.195Z,0.68
2022-10-19T10:19:36.369Z,0.63
2022-10-19T10:22:04.590Z,0.32
2022-10-19T10:24:33.712Z,0.63
2022-10-19T10:27:06.677Z,0.95
2022-10-19T10:29:37.708Z,0.30
2022-10-19T10:32:19.821Z,0.30
2022-10-19T10:35:01.018Z,0.50
2022-10-19T10:37:45.008Z,0.32
2022-10-19T10:40:23.387Z,0.93
2022-10-19T10:42:53.832Z,0.80
2022-10-19T10:45:29.531Z,0.82
2022-10-19T10:47:57.185Z,0.60
2022-10-19T10:53:07.628Z,0.60
2022-10-19T10:55:34.955Z,0.88
2022-10-19T10:58:34.645Z,0.93
2022-10-19T11:01:07.865Z,0.65
2022-10-19T11:03:38.137Z,0.70
2022-10-19T11:06:05.507Z,0.60
2022-10-19T11:08:49.637Z,0.70
2022-10-19T11:11:19.489Z,0.90
2022-10-19T11:13:52.157Z,1.02
2022-10-19T11:16:24.289Z,0.40
2022-10-19T11:18:57.332Z,0.68
2022-10-19T11:21:48.417Z,0.60
2022-10-19T11:27:43.576Z,0.73
2022-10-19T11:30:25.507Z,0.25
2022-10-19T11:33:01.839Z,0.70
2022-10-19T11:35:40.301Z,0.60
2022-10-19T11:38:35.086Z,0.55
2022-10-19T11:41:27.102Z,0.52
2022-10-19T11:44:19.724Z,0.52
2022-10-19T11:46:55.986Z,0.40
2022-10-19T11:49:49.134Z,0.60
2022-10-19T11:52:22.699Z,0.47
2022-10-19T11:55:23.782Z,0.73
2022-10-19T11:58:21.952Z,0.57
2022-10-19T12:01:08.923Z,0.50
2022-10-19T12:03:47.840Z,0.52
2022-10-19T12:06:14.736Z,0.45
2022-10-19T12:08:42.576Z,0.95
2022-10-19T12:11:26.378Z,0.45
2022-10-19T12:13:58.551Z,0.65
2022-10-19T12:16:50.911Z,0.73
2022-10-19T12:19:29.596Z,1.20
2022-10-19T12:22:02.089Z,0.90
2022-10-19T12:24:31.021Z,0.70
2022-10-19T12:26:59.699Z,0.77
2022-10-19T12:29:40.277Z,0.40
2022-10-19T12:32:08.543Z,0.55
2022-10-19T12:34:40.600Z,0.80
2022-10-19T12:37:20.094Z,0.50
2022-10-19T12:40:19.128Z,0.35
2022-10-19T12:43:10.931Z,0.60
2022-10-19T12:46:05.245Z,0.90
2022-10-19T12:48:32.520Z,0.85
2022-10-19T12:51:02.816Z,0.70
2022-10-19T12:53:44.977Z,0.47
2022-10-19T12:56:11.882Z,1.05
2022-10-19T12:58:46.691Z,0.57
2022-10-19T13:01:25.035Z,0.30
2022-10-19T13:04:07.207Z,0.77
2022-10-19T13:06:37.188Z,0.73
2022-10-19T13:09:08.484Z,1.38
2022-10-19T13:11:40.297Z,0.50
2022-10-19T13:14:53.491Z,0.70
2022-10-19T13:17:40.837Z,0.22
2022-10-19T13:23:03.907Z,0.55
2022-10-19T13:25:32.987Z,0.50
2022-10-19T13:28:22.939Z,0.85
2022-10-19T13:30:49.848Z,0.63
2022-10-19T13:33:28.692Z,0.50
2022-10-19T13:36:02.767Z,0.70
2022-10-19T13:41:22.020Z,0.43
2022-10-19T13:43:52.318Z,0.35
2022-10-19T13:46:30.062Z,0.68
2022-10-19T13:49:34.615Z,0.68
2022-10-19T13:52:20.748Z,0.68
2022-10-19T13:54:53.933Z,0.50
2022-10-19T13:57:40.941Z,0.70
2022-10-19T14:00:25.406Z,0.77
2022-10-19T14:03:33.959Z,0.60
2022-10-19T14:06:06.570Z,0.65
2022-10-19T14:08:57.852Z,0.38
2022-10-19T14:11:43.279Z,0.45
2022-10-19T14:14:22.735Z,0.50
2022-10-19T14:16:58.429Z,0.80
2022-10-19T14:19:41.939Z,0.65
2022-10-19T14:22:34.206Z,0.35
2022-10-19T14:25:22.604Z,0.40
2022-10-19T14:27:59.229Z,0.40
2022-10-19T14:30:31.746Z,0.40
2022-10-19T14:33:02.310Z,0.50
2022-10-19T14:35:34.596Z,0.35
2022-10-19T14:38:01.845Z,0.60
2022-10-19T14:40:34.858Z,0.43
2022-10-19T14:43:19.319Z,0.52
2022-10-19T14:46:13.927Z,0.95
2022-10-19T14:48:45.769Z,0.82
2022-10-19T14:51:41.735Z,0.85
2022-10-19T14:54:20.075Z,1.30
2022-10-19T14:56:55.235Z,0.93
2022-10-19T14:59:25.264Z,0.63
2022-10-19T15:01:55.746Z,0.52
2022-10-19T15:04:30.199Z,0.65
2022-10-19T15:06:59.019Z,0.90
2022-10-19T15:09:47.709Z,0.50
2022-10-19T15:12:18.332Z,0.93
2022-10-19T15:14:46.503Z,0.95
2022-10-19T15:17:26.173Z,0.60
2022-10-19T15:19:55.990Z,0.95
2022-10-19T15:22:37.821Z,0.98
2022-10-19T15:25:07.996Z,1.40
2022-10-19T15:27:34.844Z,0.85
2022-10-19T15:30:05.797Z,1.67
2022-10-19T15:32:36.568Z,1.27
2022-10-19T15:35:31.104Z,1.10
2022-10-19T15:38:15.395Z,0.82
2022-10-19T15:40:55.844Z,1.58
2022-10-19T15:43:34.550Z,1.05
2022-10-19T15:46:06.956Z,0.90
2022-10-19T15:48:51.074Z,1.10
2022-10-19T15:51:23.679Z,1.38
2022-10-19T15:53:59.185Z,1.25
2022-10-19T15:56:28.982Z,1.25
2022-10-19T15:58:59.416Z,1.00
2022-10-19T16:01:29.679Z,0.90
2022-10-19T16:03:57.324Z,0.82
2022-10-19T16:06:29.436Z,0.75
2022-10-19T16:08:57.378Z,1.00
2022-10-19T16:11:25.428Z,1.15
2022-10-19T16:13:52.542Z,0.80
2022-10-19T16:16:23.738Z,1.40
2022-10-19T16:18:51.223Z,0.80
2022-10-19T16:21:20.291Z,0.75
2022-10-19T16:23:47.396Z,1.30
2022-10-19T16:26:16.174Z,0.90
2022-10-19T16:28:43.565Z,1.75
2022-10-19T16:33:38.164Z,1.70
2022-10-19T16:36:10.128Z,1.80
2022-10-19T16:38:37.552Z,5.53
2022-10-19T16:41:07.654Z,5.68
2022-10-19T16:43:35.731Z,4.43
2022-10-19T16:48:29.818Z,7.82
2022-10-19T16:51:06.134Z,5.37
2022-10-19T16:53:38.188Z,3.45
2022-10-19T16:56:11.380Z,3.40
2022-10-19T16:58:39.200Z,4.18
2022-10-19T17:01:16.746Z,3.78
2022-10-19T17:03:45.283Z,3.13
2022-10-19T17:06:13.210Z,2.75
2022-10-19T17:11:30.892Z,3.33
2022-10-19T17:14:00.363Z,3.30
2022-10-19T17:16:29.863Z,4.13
2022-10-19T17:18:59.245Z,4.35
2022-10-19T17:21:29.173Z,3.65
2022-10-19T17:24:01.023Z,3.63
2022-10-19T17:26:34.499Z,2.97
2022-10-19T17:29:01.764Z,2.85
2022-10-19T17:31:29.461Z,2.58
2022-10-19T17:33:57.206Z,3.33
2022-10-19T17:36:30.294Z,7.28
2022-10-19T17:39:00.042Z,7.00
2022-10-19T17:41:28.227Z,6.97
2022-10-19T17:43:55.877Z,5.32
2022-10-19T17:46:29.512Z,5.22
2022-10-19T17:48:57.342Z,3.33
2022-10-19T17:51:28.709Z,4.45
2022-10-19T17:54:01.403Z,4.55
2022-10-19T17:56:28.973Z,3.42
2022-10-19T17:58:59.654Z,4.50
2022-10-19T18:01:27.090Z,2.17
2022-10-19T18:03:54.279Z,3.25
2022-10-19T18:06:24.695Z,2.67
2022-10-19T18:08:53.772Z,2.33
2022-10-19T18:11:32.244Z,2.95
2022-10-19T18:14:01.335Z,5.10
2022-10-19T18:16:31.370Z,3.65
2022-10-19T18:19:00.504Z,3.58
2022-10-19T18:21:31.249Z,2.88
2022-10-19T18:24:00.378Z,3.15
2022-10-19T18:26:29.449Z,3.35
2022-10-19T18:28:57.526Z,2.78
2022-10-19T18:34:02.102Z,5.45
2022-10-19T18:36:30.793Z,4.13
2022-10-19T18:39:02.464Z,4.70
2022-10-19T18:41:30.218Z,3.78
2022-10-19T18:43:59.551Z,4.35
2022-10-19T18:46:26.838Z,6.25
2022-10-19T18:48:54.721Z,4.45
2022-10-19T18:51:23.645Z,4.85
2022-10-19T18:53:51.142Z,4.65
2022-10-19T18:56:20.000Z,3.60
2022-10-19T18:58:50.343Z,3.25
2022-10-19T19:01:30.248Z,3.30
2022-10-19T19:04:20.450Z,3.05
2022-10-19T19:06:48.579Z,3.25
2022-10-19T19:09:18.051Z,3.10
2022-10-19T19:11:45.232Z,3.50
2022-10-19T19:14:16.034Z,4.28
2022-10-19T19:16:45.326Z,3.28
2022-10-19T19:19:15.151Z,4.18
2022-10-19T19:21:47.103Z,3.17
2022-10-19T19:24:19.544Z,3.75
2022-10-19T19:26:52.637Z,2.55
2022-10-19T19:29:20.957Z,2.83
2022-10-19T19:31:48.515Z,3.60
2022-10-19T19:34:15.962Z,1.95
2022-10-19T19:36:47.965Z,4.50
2022-10-19T19:39:19.175Z,4.75
2022-10-19T19:41:46.865Z,2.72
2022-10-19T19:44:14.300Z,2.53
2022-10-19T19:46:41.324Z,3.53
2022-10-19T19:49:08.776Z,2.67
2022-10-19T19:51:35.991Z,2.10
2022-10-19T19:54:03.401Z,3.72
2022-10-19T19:56:31.161Z,2.17
2022-10-19T19:59:00.433Z,2.55
2022-10-19T20:01:27.622Z,3.03
2022-10-19T20:03:59.108Z,1.90
2022-10-19T20:06:26.888Z,2.55
2022-10-19T20:08:56.519Z,2.08
2022-10-19T20:11:25.959Z,1.52
2022-10-19T20:13:54.667Z,2.83
2022-10-19T20:16:29.187Z,1.67
2022-10-19T20:19:05.577Z,1.65
2022-10-19T20:21:33.959Z,1.92
2022-10-19T20:24:02.148Z,1.75
2022-10-19T20:26:29.571Z,1.52
2022-10-19T20:28:59.394Z,1.85
2022-10-19T20:33:58.658Z,1.48
2022-10-19T20:36:26.632Z,2.75
2022-10-19T20:38:56.442Z,1.58
2022-10-19T20:41:25.830Z,2.03
2022-10-19T20:43:53.911Z,2.08
2022-10-19T20:48:50.532Z,2.13
2022-10-19T20:53:57.557Z,1.63
2022-10-19T20:56:31.009Z,1.02
2022-10-19T21:01:38.156Z,2.63
2022-10-19T21:04:07.571Z,1.83
2022-10-19T21:06:39.057Z,2.28
2022-10-19T21:09:06.279Z,1.75
2022-10-19T21:11:38.061Z,1.15
2022-10-19T21:14:12.402Z,1.90
2022-10-19T21:16:39.915Z,1.50
2022-10-19T21:19:12.040Z,1.40
2022-10-19T21:21:42.191Z,1.52
2022-10-19T21:24:13.014Z,1.90
2022-10-19T21:26:40.323Z,1.13
2022-10-19T21:29:09.849Z,1.95
2022-10-19T21:31:42.998Z,1.02
2022-10-19T21:34:22.753Z,1.20
2022-10-19T21:36:50.314Z,1.20
2022-10-19T21:39:18.040Z,1.15
2022-10-19T21:41:45.131Z,1.98
2022-10-19T21:44:13.095Z,1.30
2022-10-19T21:46:40.512Z,1.83
2022-10-19T21:49:07.601Z,1.52
2022-10-19T21:51:42.431Z,1.67
2022-10-19T21:54:13.960Z,1.77
2022-10-19T21:56:41.189Z,1.10
2022-10-19T21:59:08.630Z,2.13
2022-10-19T22:01:40.119Z,1.80
2022-10-19T22:04:12.763Z,1.23
2022-10-19T22:06:43.698Z,2.00
2022-10-19T22:09:15.322Z,1.60
2022-10-19T22:11:42.839Z,2.08
2022-10-19T22:14:11.887Z,2.33
2022-10-19T22:16:40.676Z,1.10
2022-10-19T22:19:08.207Z,1.65
2022-10-19T22:21:41.670Z,1.88
2022-10-19T22:24:20.726Z,1.48
2022-10-19T22:26:51.172Z,1.90
2022-10-19T22:29:18.926Z,1.67
2022-10-19T22:31:48.130Z,1.40
2022-10-19T22:34:17.227Z,1.50
2022-10-19T22:36:45.130Z,3.83
2022-10-19T22:39:12.533Z,2.17
2022-10-19T22:41:39.451Z,3.03
2022-10-19T22:44:06.807Z,1.80
2022-10-19T22:46:33.790Z,1.70
2022-10-19T22:49:00.878Z,1.27
2022-10-19T22:51:27.932Z,1.57
2022-10-19T22:53:55.411Z,1.53
2022-10-19T22:56:22.387Z,1.88
2022-10-19T22:58:49.810Z,1.95
2022-10-19T23:01:17.339Z,1.55
2022-10-19T23:03:44.825Z,1.65
2022-10-19T23:06:13.923Z,2.00
2022-10-19T23:08:41.004Z,2.78
2022-10-19T23:11:08.052Z,1.93
2022-10-19T23:13:35.010Z,2.23
2022-10-19T23:16:02.210Z,2.50
2022-10-19T23:18:33.937Z,2.28
2022-10-19T23:21:06.185Z,1.85
2022-10-19T23:23:34.184Z,3.15
2022-10-19T23:28:34.878Z,2.72
2022-10-19T23:31:19.855Z,2.72
2022-10-19T23:33:47.873Z,2.25
2022-10-19T23:38:48.934Z,2.63
2022-10-19T23:41:16.964Z,2.25
2022-10-19T23:46:11.176Z,2.57
2022-10-19T23:48:41.178Z,2.72
2022-10-19T23:51:23.310Z,2.50
2022-10-19T23:53:52.871Z,2.60
2022-10-19T23:56:22.981Z,2.78
2022-10-19T23:58:50.591Z,2.78
